sensor_id;sensor_type;location;lat;lon;timestamp;temperature;humidity
26326;DHT22;14032;52.510;7.342;2022-09-09T00:04:30;15.30;99.90
26326;DHT22;14032;52.510;7.342;2022-09-09T00:13:21;15.30;99.90
26326;DHT22;14032;52.510;7.342;2022-09-09T00:15:59;15.30;99.90
26326;DHT22;14032;52.510;7.342;2022-09-09T00:21:43;15.20;99.90
26326;DHT22;14032;52.510;7.342;2022-09-09T00:27:42;15.20;99.90
26326;DHT22;14032;52.510;7.342;2022-09-09T00:30:22;15.30;99.90
26326;DHT22;14032;52.510;7.342;2022-09-09T00:32:53;15.30;99.90
26326;DHT22;14032;52.510;7.342;2022-09-09T00:35:26;15.30;99.90
26326;DHT22;14032;52.510;7.342;2022-09-09T00:37:55;15.30;99.90
26326;DHT22;14032;52.510;7.342;2022-09-09T00:40:56;15.30;99.90
26326;DHT22;14032;52.510;7.342;2022-09-09T00:43:32;15.30;99.90
26326;DHT22;14032;52.510;7.342;2022-09-09T00:47:12;15.30;99.90
26326;DHT22;14032;52.510;7.342;2022-09-09T00:50:05;15.30;99.90
26326;DHT22;14032;52.510;7.342;2022-09-09T00:55:20;15.30;99.90
26326;DHT22;14032;52.510;7.342;2022-09-09T00:57:44;15.30;99.90
26326;DHT22;14032;52.510;7.342;2022-09-09T01:10:51;15.10;99.90
26326;DHT22;14032;52.510;7.342;2022-09-09T01:13:24;15.10;99.90
26326;DHT22;14032;52.510;7.342;2022-09-09T01:15:51;15.10;99.90
26326;DHT22;14032;52.510;7.342;2022-09-09T01:18:21;15.10;99.90
26326;DHT22;14032;52.510;7.342;2022-09-09T01:21:02;15.10;99.90
26326;DHT22;14032;52.510;7.342;2022-09-09T01:26:35;15.00;99.90
26326;DHT22;14032;52.510;7.342;2022-09-09T01:29:04;15.00;99.90
26326;DHT22;14032;52.510;7.342;2022-09-09T01:31:42;15.00;99.90
26326;DHT22;14032;52.510;7.342;2022-09-09T01:34:13;15.00;99.90
26326;DHT22;14032;52.510;7.342;2022-09-09T01:37:02;14.90;99.90
26326;DHT22;14032;52.510;7.342;2022-09-09T01:39:30;14.90;99.90
26326;DHT22;14032;52.510;7.342;2022-09-09T01:41:57;14.90;99.90
26326;DHT22;14032;52.510;7.342;2022-09-09T01:44:23;14.90;99.90
26326;DHT22;14032;52.510;7.342;2022-09-09T01:46:49;14.90;99.90
26326;DHT22;14032;52.510;7.342;2022-09-09T01:49:16;14.90;99.90
26326;DHT22;14032;52.510;7.342;2022-09-09T01:51:43;14.80;99.90
26326;DHT22;14032;52.510;7.342;2022-09-09T01:54:10;14.80;99.90
26326;DHT22;14032;52.510;7.342;2022-09-09T02:02:11;14.80;99.90
26326;DHT22;14032;52.510;7.342;2022-09-09T02:04:43;14.80;99.90
26326;DHT22;14032;52.510;7.342;2022-09-09T02:07:47;14.80;99.90
26326;DHT22;14032;52.510;7.342;2022-09-09T02:10:17;14.80;99.90
26326;DHT22;14032;52.510;7.342;2022-09-09T02:12:48;14.80;99.90
26326;DHT22;14032;52.510;7.342;2022-09-09T02:18:04;14.80;99.90
26326;DHT22;14032;52.510;7.342;2022-09-09T02:20:35;14.80;99.90
26326;DHT22;14032;52.510;7.342;2022-09-09T02:23:02;14.80;99.90
26326;DHT22;14032;52.510;7.342;2022-09-09T02:25:29;14.80;99.90
26326;DHT22;14032;52.510;7.342;2022-09-09T02:27:55;14.80;99.90
26326;DHT22;14032;52.510;7.342;2022-09-09T02:30:23;14.70;99.90
26326;DHT22;14032;52.510;7.342;2022-09-09T02:32:51;14.70;99.90
26326;DHT22;14032;52.510;7.342;2022-09-09T02:35:21;14.70;99.90
26326;DHT22;14032;52.510;7.342;2022-09-09T02:37:51;14.70;99.90
26326;DHT22;14032;52.510;7.342;2022-09-09T02:40:18;14.70;99.90
26326;DHT22;14032;52.510;7.342;2022-09-09T02:42:47;14.70;99.90
26326;DHT22;14032;52.510;7.342;2022-09-09T02:45:19;14.70;99.90
26326;DHT22;14032;52.510;7.342;2022-09-09T02:50:33;14.70;99.90
26326;DHT22;14032;52.510;7.342;2022-09-09T02:53:18;14.60;99.90
26326;DHT22;14032;52.510;7.342;2022-09-09T02:55:57;14.60;99.90
26326;DHT22;14032;52.510;7.342;2022-09-09T02:58:24;14.60;99.90
26326;DHT22;14032;52.510;7.342;2022-09-09T03:00:51;14.60;99.90
26326;DHT22;14032;52.510;7.342;2022-09-09T03:03:17;14.60;99.90
26326;DHT22;14032;52.510;7.342;2022-09-09T03:05:44;14.60;99.90
26326;DHT22;14032;52.510;7.342;2022-09-09T03:08:10;14.60;99.90
26326;DHT22;14032;52.510;7.342;2022-09-09T03:10:36;14.50;99.90
26326;DHT22;14032;52.510;7.342;2022-09-09T03:13:02;14.60;99.90
26326;DHT22;14032;52.510;7.342;2022-09-09T03:15:29;14.50;99.90
26326;DHT22;14032;52.510;7.342;2022-09-09T03:17:57;14.50;99.90
26326;DHT22;14032;52.510;7.342;2022-09-09T03:20:28;14.50;99.90
26326;DHT22;14032;52.510;7.342;2022-09-09T03:22:54;14.50;99.90
26326;DHT22;14032;52.510;7.342;2022-09-09T03:25:21;14.40;99.90
26326;DHT22;14032;52.510;7.342;2022-09-09T03:27:49;14.50;99.90
26326;DHT22;14032;52.510;7.342;2022-09-09T03:30:15;14.40;99.90
26326;DHT22;14032;52.510;7.342;2022-09-09T03:32:41;14.40;99.90
26326;DHT22;14032;52.510;7.342;2022-09-09T03:35:07;14.40;99.90
26326;DHT22;14032;52.510;7.342;2022-09-09T03:37:33;14.40;99.90
26326;DHT22;14032;52.510;7.342;2022-09-09T03:39:58;14.40;99.90
26326;DHT22;14032;52.510;7.342;2022-09-09T03:42:25;14.40;99.90
26326;DHT22;14032;52.510;7.342;2022-09-09T03:44:50;14.30;99.90
26326;DHT22;14032;52.510;7.342;2022-09-09T03:47:20;14.40;99.90
26326;DHT22;14032;52.510;7.342;2022-09-09T03:49:47;14.30;99.90
26326;DHT22;14032;52.510;7.342;2022-09-09T03:52:14;14.30;99.90
26326;DHT22;14032;52.510;7.342;2022-09-09T03:54:40;14.30;99.90
26326;DHT22;14032;52.510;7.342;2022-09-09T03:57:08;14.30;99.90
26326;DHT22;14032;52.510;7.342;2022-09-09T03:59:34;14.20;99.90
26326;DHT22;14032;52.510;7.342;2022-09-09T04:02:00;14.20;99.90
26326;DHT22;14032;52.510;7.342;2022-09-09T04:04:26;14.20;99.90
26326;DHT22;14032;52.510;7.342;2022-09-09T04:06:53;14.20;99.90
26326;DHT22;14032;52.510;7.342;2022-09-09T04:09:19;14.20;99.90
26326;DHT22;14032;52.510;7.342;2022-09-09T04:11:44;14.20;99.90
26326;DHT22;14032;52.510;7.342;2022-09-09T04:14:11;14.20;99.90
26326;DHT22;14032;52.510;7.342;2022-09-09T04:16:38;14.20;99.90
26326;DHT22;14032;52.510;7.342;2022-09-09T04:19:04;14.10;99.90
26326;DHT22;14032;52.510;7.342;2022-09-09T04:21:32;14.10;99.90
26326;DHT22;14032;52.510;7.342;2022-09-09T04:23:57;14.10;99.90
26326;DHT22;14032;52.510;7.342;2022-09-09T04:26:23;14.10;99.90
26326;DHT22;14032;52.510;7.342;2022-09-09T04:28:48;14.10;99.90
26326;DHT22;14032;52.510;7.342;2022-09-09T04:31:18;14.10;99.90
26326;DHT22;14032;52.510;7.342;2022-09-09T04:33:44;14.10;99.90
26326;DHT22;14032;52.510;7.342;2022-09-09T04:36:09;14.10;99.90
26326;DHT22;14032;52.510;7.342;2022-09-09T04:38:35;14.10;99.90
26326;DHT22;14032;52.510;7.342;2022-09-09T04:41:01;14.10;99.90
26326;DHT22;14032;52.510;7.342;2022-09-09T04:43:26;14.00;99.90
26326;DHT22;14032;52.510;7.342;2022-09-09T04:45:52;14.10;99.90
26326;DHT22;14032;52.510;7.342;2022-09-09T04:48:19;14.10;99.90
26326;DHT22;14032;52.510;7.342;2022-09-09T04:50:52;14.00;99.90
26326;DHT22;14032;52.510;7.342;2022-09-09T04:53:18;14.10;99.90
26326;DHT22;14032;52.510;7.342;2022-09-09T04:55:44;14.00;99.90
26326;DHT22;14032;52.510;7.342;2022-09-09T04:58:09;14.10;99.90
26326;DHT22;14032;52.510;7.342;2022-09-09T05:00:35;14.10;99.90
26326;DHT22;14032;52.510;7.342;2022-09-09T05:03:05;14.10;99.90
26326;DHT22;14032;52.510;7.342;2022-09-09T05:05:32;14.10;99.90
26326;DHT22;14032;52.510;7.342;2022-09-09T05:08:07;14.10;99.90
26326;DHT22;14032;52.510;7.342;2022-09-09T05:10:35;14.10;99.90
26326;DHT22;14032;52.510;7.342;2022-09-09T05:13:01;14.10;99.90
26326;DHT22;14032;52.510;7.342;2022-09-09T05:15:27;14.10;99.90
26326;DHT22;14032;52.510;7.342;2022-09-09T05:17:58;14.20;99.90
26326;DHT22;14032;52.510;7.342;2022-09-09T05:20:24;14.10;99.90
26326;DHT22;14032;52.510;7.342;2022-09-09T05:22:53;14.10;99.90
26326;DHT22;14032;52.510;7.342;2022-09-09T05:25:19;14.10;99.90
26326;DHT22;14032;52.510;7.342;2022-09-09T05:27:45;14.10;99.90
26326;DHT22;14032;52.510;7.342;2022-09-09T05:30:10;14.10;99.90
26326;DHT22;14032;52.510;7.342;2022-09-09T05:32:36;14.10;99.90
26326;DHT22;14032;52.510;7.342;2022-09-09T05:35:02;14.20;99.90
26326;DHT22;14032;52.510;7.342;2022-09-09T05:37:28;14.20;99.90
26326;DHT22;14032;52.510;7.342;2022-09-09T05:39:55;14.20;99.90
26326;DHT22;14032;52.510;7.342;2022-09-09T05:42:21;14.30;99.90
26326;DHT22;14032;52.510;7.342;2022-09-09T05:44:46;14.30;99.90
26326;DHT22;14032;52.510;7.342;2022-09-09T05:47:12;14.30;99.90
26326;DHT22;14032;52.510;7.342;2022-09-09T05:49:37;14.40;99.90
26326;DHT22;14032;52.510;7.342;2022-09-09T05:52:03;14.40;99.90
26326;DHT22;14032;52.510;7.342;2022-09-09T05:54:29;14.40;99.90
26326;DHT22;14032;52.510;7.342;2022-09-09T05:56:55;14.50;99.90
26326;DHT22;14032;52.510;7.342;2022-09-09T05:59:21;14.50;99.90
26326;DHT22;14032;52.510;7.342;2022-09-09T06:01:48;14.50;99.90
26326;DHT22;14032;52.510;7.342;2022-09-09T06:04:14;14.60;99.90
26326;DHT22;14032;52.510;7.342;2022-09-09T06:06:39;14.60;99.90
26326;DHT22;14032;52.510;7.342;2022-09-09T06:09:08;14.60;99.90
26326;DHT22;14032;52.510;7.342;2022-09-09T06:11:39;14.60;99.90
26326;DHT22;14032;52.510;7.342;2022-09-09T06:14:05;14.60;99.90
26326;DHT22;14032;52.510;7.342;2022-09-09T06:16:31;14.70;99.90
26326;DHT22;14032;52.510;7.342;2022-09-09T06:19:00;14.70;99.90
26326;DHT22;14032;52.510;7.342;2022-09-09T06:21:31;14.80;99.90
26326;DHT22;14032;52.510;7.342;2022-09-09T06:23:58;15.00;99.90
26326;DHT22;14032;52.510;7.342;2022-09-09T06:26:25;15.10;99.90
26326;DHT22;14032;52.510;7.342;2022-09-09T06:28:53;15.20;99.90
26326;DHT22;14032;52.510;7.342;2022-09-09T06:31:21;15.20;99.90
26326;DHT22;14032;52.510;7.342;2022-09-09T06:33:47;15.20;99.90
26326;DHT22;14032;52.510;7.342;2022-09-09T06:36:18;15.10;99.90
26326;DHT22;14032;52.510;7.342;2022-09-09T06:38:45;15.10;99.90
26326;DHT22;14032;52.510;7.342;2022-09-09T06:41:12;15.10;99.90
26326;DHT22;14032;52.510;7.342;2022-09-09T06:43:38;15.10;99.90
26326;DHT22;14032;52.510;7.342;2022-09-09T06:46:06;15.20;99.90
26326;DHT22;14032;52.510;7.342;2022-09-09T06:48:33;15.30;99.90
26326;DHT22;14032;52.510;7.342;2022-09-09T06:51:03;15.50;99.90
26326;DHT22;14032;52.510;7.342;2022-09-09T06:53:29;15.70;99.90
26326;DHT22;14032;52.510;7.342;2022-09-09T06:55:55;15.90;99.90
26326;DHT22;14032;52.510;7.342;2022-09-09T06:58:21;16.10;99.90
26326;DHT22;14032;52.510;7.342;2022-09-09T07:00:49;16.20;99.90
26326;DHT22;14032;52.510;7.342;2022-09-09T07:03:15;16.30;99.90
26326;DHT22;14032;52.510;7.342;2022-09-09T07:05:40;16.30;99.90
26326;DHT22;14032;52.510;7.342;2022-09-09T07:08:06;16.30;99.90
26326;DHT22;14032;52.510;7.342;2022-09-09T07:10:32;16.40;99.90
26326;DHT22;14032;52.510;7.342;2022-09-09T07:12:59;16.40;99.90
26326;DHT22;14032;52.510;7.342;2022-09-09T07:15:25;16.30;99.90
26326;DHT22;14032;52.510;7.342;2022-09-09T07:17:51;16.40;99.90
26326;DHT22;14032;52.510;7.342;2022-09-09T07:20:19;16.30;99.90
26326;DHT22;14032;52.510;7.342;2022-09-09T07:22:45;16.30;99.90
26326;DHT22;14032;52.510;7.342;2022-09-09T07:25:11;16.30;99.90
26326;DHT22;14032;52.510;7.342;2022-09-09T07:27:36;16.30;99.90
26326;DHT22;14032;52.510;7.342;2022-09-09T07:30:03;16.30;99.90
26326;DHT22;14032;52.510;7.342;2022-09-09T07:32:29;16.30;99.90
26326;DHT22;14032;52.510;7.342;2022-09-09T07:34:56;16.30;99.90
26326;DHT22;14032;52.510;7.342;2022-09-09T07:37:23;16.30;99.90
26326;DHT22;14032;52.510;7.342;2022-09-09T07:39:49;16.30;99.90
26326;DHT22;14032;52.510;7.342;2022-09-09T07:42:16;16.40;99.90
26326;DHT22;14032;52.510;7.342;2022-09-09T07:44:42;16.40;99.90
26326;DHT22;14032;52.510;7.342;2022-09-09T07:47:07;16.40;99.90
26326;DHT22;14032;52.510;7.342;2022-09-09T07:49:33;16.50;99.90
26326;DHT22;14032;52.510;7.342;2022-09-09T07:51:59;16.50;99.90
26326;DHT22;14032;52.510;7.342;2022-09-09T07:54:25;16.50;99.90
26326;DHT22;14032;52.510;7.342;2022-09-09T07:56:52;16.60;99.90
26326;DHT22;14032;52.510;7.342;2022-09-09T07:59:18;16.60;99.90
26326;DHT22;14032;52.510;7.342;2022-09-09T08:01:46;16.70;99.90
26326;DHT22;14032;52.510;7.342;2022-09-09T08:04:15;16.70;99.90
26326;DHT22;14032;52.510;7.342;2022-09-09T08:06:44;16.70;99.90
26326;DHT22;14032;52.510;7.342;2022-09-09T08:09:10;16.70;99.90
26326;DHT22;14032;52.510;7.342;2022-09-09T08:11:37;16.70;99.90
26326;DHT22;14032;52.510;7.342;2022-09-09T08:14:03;16.70;99.90
26326;DHT22;14032;52.510;7.342;2022-09-09T08:16:32;16.80;99.90
26326;DHT22;14032;52.510;7.342;2022-09-09T08:18:58;16.80;99.90
26326;DHT22;14032;52.510;7.342;2022-09-09T08:21:29;16.90;99.90
26326;DHT22;14032;52.510;7.342;2022-09-09T08:23:58;17.00;99.90
26326;DHT22;14032;52.510;7.342;2022-09-09T08:26:31;17.00;99.90
26326;DHT22;14032;52.510;7.342;2022-09-09T08:28:59;17.10;99.90
26326;DHT22;14032;52.510;7.342;2022-09-09T08:31:25;17.10;99.90
26326;DHT22;14032;52.510;7.342;2022-09-09T08:33:53;17.20;99.90
26326;DHT22;14032;52.510;7.342;2022-09-09T08:36:21;17.10;99.90
26326;DHT22;14032;52.510;7.342;2022-09-09T08:38:52;17.10;99.90
26326;DHT22;14032;52.510;7.342;2022-09-09T08:44:45;17.20;99.90
26326;DHT22;14032;52.510;7.342;2022-09-09T08:55:21;17.40;99.90
26326;DHT22;14032;52.510;7.342;2022-09-09T08:57:50;17.40;99.90
26326;DHT22;14032;52.510;7.342;2022-09-09T09:00:17;17.40;99.90
26326;DHT22;14032;52.510;7.342;2022-09-09T09:03:10;17.50;99.90
26326;DHT22;14032;52.510;7.342;2022-09-09T09:05:59;17.50;99.90
26326;DHT22;14032;52.510;7.342;2022-09-09T09:08:38;17.70;99.90
26326;DHT22;14032;52.510;7.342;2022-09-09T09:11:06;17.90;99.90
26326;DHT22;14032;52.510;7.342;2022-09-09T09:16:19;18.40;99.90
26326;DHT22;14032;52.510;7.342;2022-09-09T09:18:47;18.50;99.90
26326;DHT22;14032;52.510;7.342;2022-09-09T09:21:39;18.60;99.90
26326;DHT22;14032;52.510;7.342;2022-09-09T09:26:43;18.60;99.90
26326;DHT22;14032;52.510;7.342;2022-09-09T09:29:14;18.50;99.90
26326;DHT22;14032;52.510;7.342;2022-09-09T09:31:53;18.60;99.90
26326;DHT22;14032;52.510;7.342;2022-09-09T09:34:22;18.70;99.90
26326;DHT22;14032;52.510;7.342;2022-09-09T09:36:56;18.90;99.90
26326;DHT22;14032;52.510;7.342;2022-09-09T09:39:40;18.90;99.90
26326;DHT22;14032;52.510;7.342;2022-09-09T09:42:13;18.70;99.90
26326;DHT22;14032;52.510;7.342;2022-09-09T09:44:40;18.60;99.90
26326;DHT22;14032;52.510;7.342;2022-09-09T09:49:32;18.40;99.90
26326;DHT22;14032;52.510;7.342;2022-09-09T09:52:03;18.30;99.90
26326;DHT22;14032;52.510;7.342;2022-09-09T09:54:31;18.20;99.90
26326;DHT22;14032;52.510;7.342;2022-09-09T09:57:11;18.30;99.90
26326;DHT22;14032;52.510;7.342;2022-09-09T09:59:38;18.40;99.90
26326;DHT22;14032;52.510;7.342;2022-09-09T10:02:17;18.70;99.90
26326;DHT22;14032;52.510;7.342;2022-09-09T10:04:43;18.80;99.90
26326;DHT22;14032;52.510;7.342;2022-09-09T10:07:12;18.80;99.90
26326;DHT22;14032;52.510;7.342;2022-09-09T10:09:38;18.70;99.90
26326;DHT22;14032;52.510;7.342;2022-09-09T10:12:27;18.70;99.90
26326;DHT22;14032;52.510;7.342;2022-09-09T10:15:20;18.70;99.90
26326;DHT22;14032;52.510;7.342;2022-09-09T10:32:18;19.90;99.90
26326;DHT22;14032;52.510;7.342;2022-09-09T10:34:45;19.80;99.90
26326;DHT22;14032;52.510;7.342;2022-09-09T10:51:33;20.40;99.90
26326;DHT22;14032;52.510;7.342;2022-09-09T10:54:23;20.30;99.90
26326;DHT22;14032;52.510;7.342;2022-09-09T10:57:22;20.20;99.90
26326;DHT22;14032;52.510;7.342;2022-09-09T10:59:47;20.10;99.90
26326;DHT22;14032;52.510;7.342;2022-09-09T11:02:25;19.90;99.90
26326;DHT22;14032;52.510;7.342;2022-09-09T11:04:56;19.90;99.90
26326;DHT22;14032;52.510;7.342;2022-09-09T11:07:34;19.80;99.90
26326;DHT22;14032;52.510;7.342;2022-09-09T11:10:11;19.80;99.90
26326;DHT22;14032;52.510;7.342;2022-09-09T11:12:43;19.80;99.90
26326;DHT22;14032;52.510;7.342;2022-09-09T11:15:21;19.90;99.90
26326;DHT22;14032;52.510;7.342;2022-09-09T11:17:58;19.90;99.90
26326;DHT22;14032;52.510;7.342;2022-09-09T11:20:26;20.00;99.90
26326;DHT22;14032;52.510;7.342;2022-09-09T11:23:01;20.10;99.90
26326;DHT22;14032;52.510;7.342;2022-09-09T11:25:32;20.30;99.90
26326;DHT22;14032;52.510;7.342;2022-09-09T11:28:28;20.30;99.90
26326;DHT22;14032;52.510;7.342;2022-09-09T11:34:09;20.40;99.90
26326;DHT22;14032;52.510;7.342;2022-09-09T11:37:14;20.40;99.90
26326;DHT22;14032;52.510;7.342;2022-09-09T11:42:23;20.30;99.90
26326;DHT22;14032;52.510;7.342;2022-09-09T11:44:49;20.20;99.90
26326;DHT22;14032;52.510;7.342;2022-09-09T11:47:24;20.10;99.90
26326;DHT22;14032;52.510;7.342;2022-09-09T11:49:54;20.10;99.90
26326;DHT22;14032;52.510;7.342;2022-09-09T11:52:47;20.00;99.90
26326;DHT22;14032;52.510;7.342;2022-09-09T11:55:31;20.10;99.90
26326;DHT22;14032;52.510;7.342;2022-09-09T11:57:59;20.10;99.90
26326;DHT22;14032;52.510;7.342;2022-09-09T12:02:59;20.20;99.90
26326;DHT22;14032;52.510;7.342;2022-09-09T12:05:42;20.20;99.90
26326;DHT22;14032;52.510;7.342;2022-09-09T12:08:15;20.20;99.90
26326;DHT22;14032;52.510;7.342;2022-09-09T12:10:59;20.30;99.90
26326;DHT22;14032;52.510;7.342;2022-09-09T12:13:28;20.30;99.90
26326;DHT22;14032;52.510;7.342;2022-09-09T12:15:57;20.30;99.90
26326;DHT22;14032;52.510;7.342;2022-09-09T12:18:36;20.30;99.90
26326;DHT22;14032;52.510;7.342;2022-09-09T12:24:40;20.40;99.90
26326;DHT22;14032;52.510;7.342;2022-09-09T12:27:20;20.40;99.90
26326;DHT22;14032;52.510;7.342;2022-09-09T12:30:03;20.40;99.90
26326;DHT22;14032;52.510;7.342;2022-09-09T12:32:29;20.40;99.90
26326;DHT22;14032;52.510;7.342;2022-09-09T12:34:59;20.30;99.90
26326;DHT22;14032;52.510;7.342;2022-09-09T12:37:37;20.30;99.90
26326;DHT22;14032;52.510;7.342;2022-09-09T12:42:49;20.20;99.90
26326;DHT22;14032;52.510;7.342;2022-09-09T12:45:17;20.20;99.90
26326;DHT22;14032;52.510;7.342;2022-09-09T12:47:55;20.10;99.90
26326;DHT22;14032;52.510;7.342;2022-09-09T12:50:24;20.10;99.90
26326;DHT22;14032;52.510;7.342;2022-09-09T12:53:16;20.10;99.90
26326;DHT22;14032;52.510;7.342;2022-09-09T12:55:50;20.10;99.90
26326;DHT22;14032;52.510;7.342;2022-09-09T12:58:18;20.10;99.90
26326;DHT22;14032;52.510;7.342;2022-09-09T13:00:52;20.10;99.90
26326;DHT22;14032;52.510;7.342;2022-09-09T13:03:20;20.00;99.90
26326;DHT22;14032;52.510;7.342;2022-09-09T13:05:49;20.00;99.90
26326;DHT22;14032;52.510;7.342;2022-09-09T13:08:16;20.00;99.90
26326;DHT22;14032;52.510;7.342;2022-09-09T13:13:23;19.90;99.90
26326;DHT22;14032;52.510;7.342;2022-09-09T13:15:54;19.90;99.90
26326;DHT22;14032;52.510;7.342;2022-09-09T13:18:35;19.90;99.90
26326;DHT22;14032;52.510;7.342;2022-09-09T13:21:03;19.80;99.90
26326;DHT22;14032;52.510;7.342;2022-09-09T13:23:34;19.80;99.90
26326;DHT22;14032;52.510;7.342;2022-09-09T13:26:03;19.90;99.90
26326;DHT22;14032;52.510;7.342;2022-09-09T13:28:30;19.80;99.90
26326;DHT22;14032;52.510;7.342;2022-09-09T13:31:03;19.90;99.90
26326;DHT22;14032;52.510;7.342;2022-09-09T13:33:38;20.00;99.90
26326;DHT22;14032;52.510;7.342;2022-09-09T13:36:05;20.10;99.90
26326;DHT22;14032;52.510;7.342;2022-09-09T13:38:36;20.10;99.90
26326;DHT22;14032;52.510;7.342;2022-09-09T13:41:04;20.10;99.90
26326;DHT22;14032;52.510;7.342;2022-09-09T13:43:50;20.10;99.90
26326;DHT22;14032;52.510;7.342;2022-09-09T13:46:37;20.10;99.90
26326;DHT22;14032;52.510;7.342;2022-09-09T13:49:20;20.10;99.90
26326;DHT22;14032;52.510;7.342;2022-09-09T13:52:10;20.00;99.90
26326;DHT22;14032;52.510;7.342;2022-09-09T13:54:37;19.90;99.90
26326;DHT22;14032;52.510;7.342;2022-09-09T13:57:03;19.90;99.90
26326;DHT22;14032;52.510;7.342;2022-09-09T13:59:30;19.80;99.90
26326;DHT22;14032;52.510;7.342;2022-09-09T14:01:57;19.80;99.90
26326;DHT22;14032;52.510;7.342;2022-09-09T14:04:23;19.70;99.90
26326;DHT22;14032;52.510;7.342;2022-09-09T14:06:49;19.60;99.90
26326;DHT22;14032;52.510;7.342;2022-09-09T14:09:17;19.40;99.90
26326;DHT22;14032;52.510;7.342;2022-09-09T14:11:44;19.30;99.90
26326;DHT22;14032;52.510;7.342;2022-09-09T14:14:10;19.10;99.90
26326;DHT22;14032;52.510;7.342;2022-09-09T14:16:36;19.00;99.90
26326;DHT22;14032;52.510;7.342;2022-09-09T14:19:03;18.80;99.90
26326;DHT22;14032;52.510;7.342;2022-09-09T14:21:29;18.80;99.90
26326;DHT22;14032;52.510;7.342;2022-09-09T14:23:54;18.70;99.90
26326;DHT22;14032;52.510;7.342;2022-09-09T14:26:21;18.80;99.90
26326;DHT22;14032;52.510;7.342;2022-09-09T14:28:48;18.90;99.90
26326;DHT22;14032;52.510;7.342;2022-09-09T14:31:14;18.90;99.90
26326;DHT22;14032;52.510;7.342;2022-09-09T14:33:40;18.90;99.90
26326;DHT22;14032;52.510;7.342;2022-09-09T14:36:06;18.80;99.90
26326;DHT22;14032;52.510;7.342;2022-09-09T14:38:34;18.80;99.90
26326;DHT22;14032;52.510;7.342;2022-09-09T14:41:04;18.70;99.90
26326;DHT22;14032;52.510;7.342;2022-09-09T14:43:29;18.70;99.90
26326;DHT22;14032;52.510;7.342;2022-09-09T14:46:07;18.70;99.90
26326;DHT22;14032;52.510;7.342;2022-09-09T14:48:33;18.70;99.90
26326;DHT22;14032;52.510;7.342;2022-09-09T14:51:05;18.60;99.90
26326;DHT22;14032;52.510;7.342;2022-09-09T14:53:31;18.60;99.90
26326;DHT22;14032;52.510;7.342;2022-09-09T14:56:04;18.60;99.90
26326;DHT22;14032;52.510;7.342;2022-09-09T14:58:30;18.60;99.90
26326;DHT22;14032;52.510;7.342;2022-09-09T15:01:05;18.60;99.90
26326;DHT22;14032;52.510;7.342;2022-09-09T15:03:31;18.70;99.90
26326;DHT22;14032;52.510;7.342;2022-09-09T15:05:56;18.60;99.90
26326;DHT22;14032;52.510;7.342;2022-09-09T15:08:24;18.60;99.90
26326;DHT22;14032;52.510;7.342;2022-09-09T15:10:49;18.60;99.90
26326;DHT22;14032;52.510;7.342;2022-09-09T15:13:15;18.50;99.90
26326;DHT22;14032;52.510;7.342;2022-09-09T15:15:44;18.50;99.90
26326;DHT22;14032;52.510;7.342;2022-09-09T15:18:09;18.50;99.90
26326;DHT22;14032;52.510;7.342;2022-09-09T15:20:35;18.50;99.90
26326;DHT22;14032;52.510;7.342;2022-09-09T15:23:02;18.50;99.90
26326;DHT22;14032;52.510;7.342;2022-09-09T15:25:28;18.40;99.90
26326;DHT22;14032;52.510;7.342;2022-09-09T15:27:54;18.40;99.90
26326;DHT22;14032;52.510;7.342;2022-09-09T15:30:19;18.40;99.90
26326;DHT22;14032;52.510;7.342;2022-09-09T15:32:45;18.40;99.90
26326;DHT22;14032;52.510;7.342;2022-09-09T15:35:10;18.50;99.90
26326;DHT22;14032;52.510;7.342;2022-09-09T15:37:36;18.50;99.90
26326;DHT22;14032;52.510;7.342;2022-09-09T15:40:01;18.40;99.90
26326;DHT22;14032;52.510;7.342;2022-09-09T15:42:27;18.50;99.90
26326;DHT22;14032;52.510;7.342;2022-09-09T15:44:53;18.50;99.90
26326;DHT22;14032;52.510;7.342;2022-09-09T15:47:18;18.40;99.90
26326;DHT22;14032;52.510;7.342;2022-09-09T15:49:45;18.40;99.90
26326;DHT22;14032;52.510;7.342;2022-09-09T15:52:10;18.40;99.90
26326;DHT22;14032;52.510;7.342;2022-09-09T15:54:36;18.40;99.90
26326;DHT22;14032;52.510;7.342;2022-09-09T15:57:05;18.40;99.90
26326;DHT22;14032;52.510;7.342;2022-09-09T15:59:32;18.40;99.90
26326;DHT22;14032;52.510;7.342;2022-09-09T16:01:59;18.30;99.90
26326;DHT22;14032;52.510;7.342;2022-09-09T16:04:26;18.30;99.90
26326;DHT22;14032;52.510;7.342;2022-09-09T16:06:53;18.20;99.90
26326;DHT22;14032;52.510;7.342;2022-09-09T16:09:19;18.30;99.90
26326;DHT22;14032;52.510;7.342;2022-09-09T16:11:45;18.10;99.90
26326;DHT22;14032;52.510;7.342;2022-09-09T16:14:13;18.10;99.90
26326;DHT22;14032;52.510;7.342;2022-09-09T16:16:38;18.10;99.90
26326;DHT22;14032;52.510;7.342;2022-09-09T16:19:06;18.10;99.90
26326;DHT22;14032;52.510;7.342;2022-09-09T16:21:35;18.10;99.90
26326;DHT22;14032;52.510;7.342;2022-09-09T16:24:03;18.10;99.90
26326;DHT22;14032;52.510;7.342;2022-09-09T16:26:31;18.00;99.90
26326;DHT22;14032;52.510;7.342;2022-09-09T16:28:58;18.00;99.90
26326;DHT22;14032;52.510;7.342;2022-09-09T16:31:25;18.00;99.90
26326;DHT22;14032;52.510;7.342;2022-09-09T16:33:51;18.00;99.90
26326;DHT22;14032;52.510;7.342;2022-09-09T16:36:23;17.90;99.90
26326;DHT22;14032;52.510;7.342;2022-09-09T16:38:55;17.90;99.90
26326;DHT22;14032;52.510;7.342;2022-09-09T16:41:23;17.90;99.90
26326;DHT22;14032;52.510;7.342;2022-09-09T16:43:57;17.80;99.90
26326;DHT22;14032;52.510;7.342;2022-09-09T16:46:24;17.80;99.90
26326;DHT22;14032;52.510;7.342;2022-09-09T16:48:50;17.80;99.90
26326;DHT22;14032;52.510;7.342;2022-09-09T16:51:22;17.80;99.90
26326;DHT22;14032;52.510;7.342;2022-09-09T16:53:52;17.80;99.90
26326;DHT22;14032;52.510;7.342;2022-09-09T16:56:23;17.80;99.90
26326;DHT22;14032;52.510;7.342;2022-09-09T16:58:56;17.80;99.90
26326;DHT22;14032;52.510;7.342;2022-09-09T17:01:23;17.70;99.90
26326;DHT22;14032;52.510;7.342;2022-09-09T17:03:59;17.70;99.90
26326;DHT22;14032;52.510;7.342;2022-09-09T17:06:26;17.70;99.90
26326;DHT22;14032;52.510;7.342;2022-09-09T17:08:58;17.70;99.90
26326;DHT22;14032;52.510;7.342;2022-09-09T17:11:26;17.70;99.90
26326;DHT22;14032;52.510;7.342;2022-09-09T17:13:52;17.70;99.90
26326;DHT22;14032;52.510;7.342;2022-09-09T17:16:20;17.70;99.90
26326;DHT22;14032;52.510;7.342;2022-09-09T17:18:50;17.60;99.90
26326;DHT22;14032;52.510;7.342;2022-09-09T17:21:18;17.60;99.90
26326;DHT22;14032;52.510;7.342;2022-09-09T17:23:45;17.60;99.90
26326;DHT22;14032;52.510;7.342;2022-09-09T17:26:14;17.60;99.90
26326;DHT22;14032;52.510;7.342;2022-09-09T17:28:41;17.60;99.90
26326;DHT22;14032;52.510;7.342;2022-09-09T17:31:09;17.60;99.90
26326;DHT22;14032;52.510;7.342;2022-09-09T17:33:40;17.60;99.90
26326;DHT22;14032;52.510;7.342;2022-09-09T17:38:37;17.60;99.90